Time;durP1;ratioP1;P1;durP2;ratioP2;P2;SDS_P1;SDS_P2;PMS_P1;PMS_P2;Temp;Humidity;BMP_temperature;BMP_pressure;BME280_temperature;BME280_humidity;BME280_pressure;Samples;Min_cycle;Max_cycle;Signal;HPM_P1;HPM_P2
2023/11/18 00:07:09;;;;;;;24.50;19.30;;;;;;;2.01;100.00;99466.02;435760;1251;139581;-64
2023/11/18 00:17:15;;;;;;;25.60;19.20;;;;;;;2.02;100.00;99467.20;435883;1254;140456;-65
2023/11/18 00:27:24;;;;;;;26.30;19.50;;;;;;;2.02;100.00;99477.71;437968;1251;139394;-65
2023/11/18 00:37:31;;;;;;;27.90;20.90;;;;;;;2.01;100.00;99488.63;438531;1250;139190;-62
2023/11/18 00:47:37;;;;;;;28.50;19.70;;;;;;;1.95;100.00;99487.93;435981;1253;140681;-62
2023/11/18 00:57:43;;;;;;;25.70;20.10;;;;;;;1.89;100.00;99497.77;435895;1249;139766;-63
2023/11/18 01:07:49;;;;;;;31.60;19.80;;;;;;;1.84;100.00;99502.08;437572;1253;140164;-61
2023/11/18 01:17:56;;;;;;;23.90;18.60;;;;;;;1.77;100.00;99500.36;435836;1250;140067;-62
2023/11/18 01:28:03;;;;;;;31.60;21.80;;;;;;;1.71;100.00;99506.40;436210;1249;139754;-62
2023/11/18 01:38:11;;;;;;;29.10;20.30;;;;;;;1.65;100.00;99511.95;436814;1250;139142;-63
2023/11/18 01:48:18;;;;;;;32.50;22.70;;;;;;;1.58;100.00;99515.77;436716;1249;139254;-62
2023/11/18 01:58:25;;;;;;;30.10;19.90;;;;;;;1.44;100.00;99516.98;436113;1252;139597;-62
2023/11/18 02:08:34;;;;;;;28.20;17.80;;;;;;;1.31;100.00;99523.23;436338;1251;139750;-63
2023/11/18 02:18:43;;;;;;;21.90;17.00;;;;;;;1.21;100.00;99524.51;436342;1249;140740;-62
2023/11/18 02:28:50;;;;;;;16.80;10.30;;;;;;;1.08;100.00;99528.80;437282;1249;139772;-62
2023/11/18 02:38:58;;;;;;;16.10;12.00;;;;;;;0.93;100.00;99532.46;436487;1251;139182;-62
2023/11/18 02:49:04;;;;;;;14.50;12.20;;;;;;;0.81;100.00;99544.67;435591;1250;139232;-63
2023/11/18 02:59:10;;;;;;;16.30;12.60;;;;;;;0.68;100.00;99559.09;436073;1250;140290;-63
2023/11/18 03:09:18;;;;;;;12.60;10.90;;;;;;;0.59;100.00;99567.94;435962;1251;139345;-63
2023/11/18 03:19:24;;;;;;;15.00;12.30;;;;;;;0.48;100.00;99575.08;435579;1251;139230;-66
2023/11/18 03:29:31;;;;;;;11.50;10.30;;;;;;;0.37;100.00;99590.30;435744;1253;139608;-66
2023/11/18 03:39:37;;;;;;;10.40;9.00;;;;;;;0.29;100.00;99615.60;436877;1250;140701;-66
2023/11/18 03:49:43;;;;;;;13.50;9.70;;;;;;;0.18;100.00;99617.55;435517;1251;139197;-66
2023/11/18 03:59:50;;;;;;;10.70;8.90;;;;;;;0.10;100.00;99628.73;436588;1250;139140;-66
2023/11/18 04:09:56;;;;;;;9.80;8.60;;;;;;;0.07;100.00;99645.33;435574;1253;140060;-65
2023/11/18 04:20:05;;;;;;;7.70;6.30;;;;;;;-0.00;100.00;99650.27;435874;1249;140947;-65
2023/11/18 04:30:12;;;;;;;6.90;6.20;;;;;;;-0.12;100.00;99664.45;436017;1253;139478;-65
2023/11/18 04:40:19;;;;;;;8.00;6.60;;;;;;;-0.18;100.00;99675.58;435467;1250;139174;-66
2023/11/18 04:50:25;;;;;;;7.90;6.90;;;;;;;-0.20;100.00;99686.45;435786;1250;140198;-66
2023/11/18 05:00:32;;;;;;;9.10;7.90;;;;;;;-0.22;100.00;99686.15;435614;1251;139334;-67
2023/11/18 05:10:38;;;;;;;8.30;7.40;;;;;;;-0.28;100.00;99699.14;437197;1251;139794;-66
2023/11/18 05:20:46;;;;;;;9.70;8.40;;;;;;;-0.31;100.00;99701.59;438148;1254;139060;-67
2023/11/18 05:30:55;;;;;;;10.10;8.60;;;;;;;-0.33;100.00;99703.73;436729;1251;139132;-67
2023/11/18 05:41:03;;;;;;;10.90;7.40;;;;;;;-0.37;100.00;99723.39;435554;1253;139633;-66
2023/11/18 05:51:10;;;;;;;7.10;6.40;;;;;;;-0.42;100.00;99739.11;436061;1254;141790;-66
2023/11/18 06:01:17;;;;;;;7.60;6.00;;;;;;;-0.46;100.00;99750.55;435786;1250;140143;-66
2023/11/18 06:11:23;;;;;;;7.10;6.40;;;;;;;-0.50;100.00;99756.46;435762;1250;139298;-65
2023/11/18 06:21:30;;;;;;;;;;;;;;;-0.54;100.00;99763.23;436333;1253;140235;-66
2023/11/18 06:31:36;;;;;;;7.70;7.00;;;;;;;-0.53;100.00;99775.92;436816;1253;125777;-67
2023/11/18 06:41:48;;;;;;;8.70;7.10;;;;;;;-0.50;100.00;99792.57;435621;1253;141148;-66
2023/11/18 06:51:55;;;;;;;7.80;7.00;;;;;;;-0.46;100.00;99808.85;435678;1253;139016;-66
2023/11/18 07:02:01;;;;;;;9.50;8.50;;;;;;;-0.45;100.00;99823.63;435806;1254;139058;-66
2023/11/18 07:12:10;;;;;;;12.90;11.10;;;;;;;-0.41;100.00;99840.77;436277;1253;140098;-66
2023/11/18 07:22:16;;;;;;;9.90;8.30;;;;;;;-0.36;100.00;99858.75;435897;1251;139870;-67
2023/11/18 07:32:22;;;;;;;9.70;7.80;;;;;;;-0.34;100.00;99870.94;435972;1251;138961;-65
2023/11/18 07:42:28;;;;;;;8.90;7.70;;;;;;;-0.31;100.00;99874.67;435317;1253;140294;-66
2023/11/18 07:52:35;;;;;;;8.60;7.50;;;;;;;-0.20;100.00;99878.48;435476;1254;139325;-66
2023/11/18 08:02:41;;;;;;;9.10;8.20;;;;;;;-0.12;100.00;99882.65;436600;1254;139068;-66
2023/11/18 08:12:48;;;;;;;7.20;6.50;;;;;;;-0.07;100.00;99901.34;435588;1254;140002;-66
2023/11/18 08:22:55;;;;;;;8.00;6.50;;;;;;;-0.01;100.00;99903.66;436286;1254;140266;-67
2023/11/18 08:33:01;;;;;;;7.30;6.40;;;;;;;0.04;100.00;99911.68;436863;1250;139111;-66
2023/11/18 08:43:11;;;;;;;6.40;5.90;;;;;;;0.06;100.00;99917.84;435661;1253;139047;-67
2023/11/18 08:53:18;;;;;;;6.80;5.80;;;;;;;0.08;100.00;99936.06;435907;1256;139379;-66
2023/11/18 09:03:27;;;;;;;6.40;5.80;;;;;;;0.13;100.00;99954.91;436415;1253;139254;-66
2023/11/18 09:13:35;;;;;;;9.60;6.90;;;;;;;0.28;100.00;99958.67;436728;1253;139388;-65
2023/11/18 09:23:42;;;;;;;5.70;4.80;;;;;;;0.49;100.00;99961.59;436833;1250;139168;-66
2023/11/18 09:33:51;;;;;;;5.50;4.90;;;;;;;0.87;100.00;99965.42;436063;1252;138894;-67
2023/11/18 09:44:02;;;;;;;5.60;5.10;;;;;;;1.24;100.00;99959.89;435741;1251;139267;-66
2023/11/18 09:54:21;;;;;;;6.00;5.40;;;;;;;1.60;100.00;99961.09;436426;1250;139327;-65
2023/11/18 10:04:28;;;;;;;5.50;5.00;;;;;;;1.65;100.00;99965.29;436776;1254;139958;-67
2023/11/18 10:14:35;;;;;;;5.60;5.10;;;;;;;1.48;100.00;99974.45;436107;1253;139334;-67
2023/11/18 10:24:46;;;;;;;5.10;4.60;;;;;;;1.32;100.00;99988.73;437511;1253;140241;-65
2023/11/18 10:34:54;;;;;;;4.90;4.40;;;;;;;1.03;100.00;100006.34;435791;1254;139359;-66
2023/11/18 10:45:02;;;;;;;7.50;6.30;;;;;;;0.83;100.00;100016.19;435895;1254;139930;-65
2023/11/18 10:55:11;;;;;;;5.40;4.90;;;;;;;0.70;100.00;100023.29;435453;1254;139052;-64
2023/11/18 11:05:32;;;;;;;8.00;7.20;;;;;;;0.55;100.00;100036.42;436431;1254;139456;-65
2023/11/18 11:15:52;;;;;;;6.50;5.90;;;;;;;0.42;100.00;100059.02;436229;1256;139394;-64
2023/11/18 11:26:13;;;;;;;9.80;8.50;;;;;;;0.36;100.00;100071.69;435808;1253;138922;-64
2023/11/18 11:36:27;;;;;;;13.00;9.50;;;;;;;0.32;100.00;100083.10;436326;1254;139228;-64
2023/11/18 11:46:37;;;;;;;11.40;10.40;;;;;;;0.27;100.00;100094.71;435838;1256;139674;-65
2023/11/18 11:56:46;;;;;;;11.70;9.90;;;;;;;0.22;100.00;100114.75;435991;1254;219285;-66
2023/11/18 12:06:56;;;;;;;12.00;9.90;;;;;;;0.18;100.00;100116.19;436255;1253;139140;-68
2023/11/18 12:17:22;;;;;;;10.60;9.50;;;;;;;0.15;100.00;100111.40;436347;1251;139561;-71
2023/11/18 12:27:51;;;;;;;9.80;8.60;;;;;;;0.18;100.00;100121.87;437217;1254;140169;-76
2023/11/18 12:38:29;;;;;;;10.40;9.00;;;;;;;0.25;100.00;100132.96;435859;1254;140212;-69
2023/11/18 12:48:40;;;;;;;12.70;9.90;;;;;;;0.22;100.00;100146.25;435700;1254;139293;-72
2023/11/18 12:58:47;;;;;;;11.10;9.90;;;;;;;0.21;100.00;100154.72;435799;1254;140489;-71
2023/11/18 13:08:54;;;;;;;10.90;9.50;;;;;;;0.19;100.00;100163.86;437386;1251;140498;-71
2023/11/18 13:19:00;;;;;;;10.70;9.30;;;;;;;0.14;100.00;100168.58;435533;1253;139961;-71
2023/11/18 13:29:08;;;;;;;12.10;10.70;;;;;;;0.10;100.00;100176.20;436194;1253;139475;-72
2023/11/18 13:39:20;;;;;;;12.20;11.00;;;;;;;0.05;100.00;100185.89;436561;1251;139227;-70
2023/11/18 13:49:30;;;;;;;10.50;9.40;;;;;;;-0.04;100.00;100192.02;436280;1251;140695;-72
2023/11/18 13:59:37;;;;;;;12.20;11.00;;;;;;;-0.10;100.00;100199.31;435966;1251;139390;-70
2023/11/18 14:09:45;;;;;;;12.00;9.50;;;;;;;-0.12;100.00;100198.98;436104;1251;139745;-73
2023/11/18 14:19:52;;;;;;;11.30;10.10;;;;;;;-0.11;100.00;100197.95;439630;1251;139310;-73
2023/11/18 14:30:00;;;;;;;12.90;11.40;;;;;;;-0.14;100.00;100206.05;439615;1251;140040;-71
2023/11/18 14:40:08;;;;;;;14.60;12.90;;;;;;;-0.18;100.00;100226.23;435497;1253;140633;-67
2023/11/18 14:50:17;;;;;;;15.10;13.50;;;;;;;-0.24;100.00;100236.79;439646;1248;141417;-67
2023/11/18 15:00:26;;;;;;;14.30;12.50;;;;;;;-0.29;100.00;100232.37;435932;1251;140389;-68
2023/11/18 15:10:32;;;;;;;19.00;15.30;;;;;;;-0.35;100.00;100235.51;435745;1254;140047;-70
2023/11/18 15:20:38;;;;;;;;;;;;;;;-0.39;100.00;100239.15;436249;1254;139422;-68
2023/11/18 15:30:45;;;;;;;19.70;16.80;;;;;;;-0.41;100.00;100241.07;435964;1251;127440;-68
2023/11/18 15:40:52;;;;;;;16.90;13.90;;;;;;;-0.45;100.00;100240.56;436310;1251;140446;-67
2023/11/18 15:50:59;;;;;;;17.50;15.00;;;;;;;-0.50;100.00;100251.80;436189;1251;140025;-69
2023/11/18 16:01:08;;;;;;;22.70;19.10;;;;;;;-0.52;100.00;100252.32;437064;1251;139921;-68
2023/11/18 16:11:14;;;;;;;18.10;16.10;;;;;;;-0.54;100.00;100242.89;435535;1254;139907;-67
2023/11/18 16:21:21;;;;;;;17.20;15.30;;;;;;;-0.58;100.00;100233.27;436132;1254;139523;-65
2023/11/18 16:31:27;;;;;;;16.20;13.50;;;;;;;-0.60;100.00;100234.85;436416;1253;139824;-65
2023/11/18 16:41:34;;;;;;;16.40;14.80;;;;;;;-0.63;100.00;100238.31;436308;1250;139946;-62
2023/11/18 16:51:53;;;;;;;17.50;14.10;;;;;;;-0.76;100.00;100232.04;436364;1251;140471;-62
2023/11/18 17:02:05;;;;;;;20.00;15.80;;;;;;;-0.92;100.00;100237.64;436206;1251;139623;-61
2023/11/18 17:12:12;;;;;;;19.40;15.10;;;;;;;-1.13;100.00;100248.92;436395;1253;139894;-64
2023/11/18 17:22:18;;;;;;;13.30;12.00;;;;;;;-1.48;100.00;100238.09;435808;1253;141011;-63
2023/11/18 17:32:25;;;;;;;19.00;15.90;;;;;;;-1.78;100.00;100255.54;436803;1253;140052;-64
2023/11/18 17:42:31;;;;;;;17.60;15.30;;;;;;;-1.90;100.00;100257.30;436136;1254;139905;-63
2023/11/18 17:52:40;;;;;;;16.00;14.10;;;;;;;-1.86;100.00;100261.06;435947;1251;141456;-63
2023/11/18 18:02:46;;;;;;;15.60;13.80;;;;;;;-1.79;100.00;100272.89;436503;1251;139847;-61
2023/11/18 18:12:54;;;;;;;18.50;14.80;;;;;;;-1.85;100.00;100290.92;437335;1250;139477;-63
2023/11/18 18:23:00;;;;;;;15.60;13.70;;;;;;;-1.85;100.00;100292.48;435927;1250;140571;-62
2023/11/18 18:33:08;;;;;;;17.60;14.40;;;;;;;-1.91;100.00;100274.80;436803;1249;139603;-63
2023/11/18 18:43:15;;;;;;;20.20;15.70;;;;;;;-2.14;100.00;100275.67;435848;1253;139830;-63
2023/11/18 18:53:22;;;;;;;21.20;15.60;;;;;;;-2.30;100.00;100277.73;436213;1253;140775;-62
2023/11/18 19:03:28;;;;;;;16.60;13.90;;;;;;;-2.35;100.00;100274.14;436087;1251;139755;-63
2023/11/18 19:13:34;;;;;;;14.50;12.80;;;;;;;-2.52;100.00;100262.31;435817;1253;139804;-63
2023/11/18 19:23:40;;;;;;;20.20;16.50;;;;;;;-2.80;100.00;100258.85;436504;1251;140170;-62
2023/11/18 19:33:45;;;;;;;;;;;;;;;-3.01;100.00;100226.79;436010;1250;140085;-63
2023/11/18 19:43:51;;;;;;;22.90;19.30;;;;;;;-3.15;100.00;100211.66;436129;1253;126877;-62
2023/11/18 19:53:58;;;;;;;23.40;18.10;;;;;;;-3.30;100.00;100221.22;435612;1251;140239;-63
2023/11/18 20:04:05;;;;;;;21.90;17.70;;;;;;;-3.45;100.00;100221.17;435873;1250;141756;-62
2023/11/18 20:14:12;;;;;;;21.50;16.80;;;;;;;-3.55;100.00;100186.89;436301;1249;141206;-63
2023/11/18 20:24:18;;;;;;;21.30;17.50;;;;;;;-3.65;100.00;100215.11;436820;1249;140028;-64
2023/11/18 20:34:24;;;;;;;34.00;27.90;;;;;;;-3.45;100.00;100210.22;435498;1251;140225;-64
2023/11/18 20:44:31;;;;;;;60.60;47.30;;;;;;;-3.13;100.00;100201.58;435395;1251;139870;-63
2023/11/18 20:54:44;;;;;;;50.30;40.30;;;;;;;-2.85;100.00;100203.14;435756;1250;141568;-63
2023/11/18 21:04:50;;;;;;;31.80;24.80;;;;;;;-2.65;100.00;100201.45;435514;1251;140716;-63
2023/11/18 21:14:57;;;;;;;26.10;20.20;;;;;;;-2.51;100.00;100195.27;435453;1250;139854;-64
2023/11/18 21:25:05;;;;;;;22.30;18.70;;;;;;;-2.36;100.00;100176.40;435582;1253;140324;-63
2023/11/18 21:35:14;;;;;;;32.10;23.00;;;;;;;-2.20;100.00;100150.64;435670;1250;140088;-63
2023/11/18 21:45:23;;;;;;;40.40;24.80;;;;;;;-2.13;100.00;100124.72;435105;1250;139451;-62
2023/11/18 21:55:29;;;;;;;27.10;21.00;;;;;;;-2.08;100.00;100121.42;435536;1249;139955;-64
2023/11/18 22:05:35;;;;;;;28.70;22.40;;;;;;;-1.96;100.00;100133.05;435450;1253;140416;-64
2023/11/18 22:15:41;;;;;;;;;;;;;;;-1.87;100.00;100135.77;435502;1251;142378;-63
2023/11/18 22:25:50;;;;;;;43.70;31.70;;;;;;;-1.78;100.00;100124.75;435817;1250;126848;-63
2023/11/18 22:35:57;;;;;;;41.00;31.40;;;;;;;-1.72;100.00;100125.92;436069;1251;140448;-63
2023/11/18 22:46:01;;;;;;;;;;;;;;;-1.64;100.00;100115.58;435243;1254;139574;-64
2023/11/18 22:56:09;;;;;;;36.20;28.40;;;;;;;-1.58;100.00;100089.27;435878;1250;125982;-63
2023/11/18 23:06:19;;;;;;;37.90;27.90;;;;;;;-1.53;100.00;100061.60;435862;1254;141293;-63
2023/11/18 23:16:26;;;;;;;33.20;25.50;;;;;;;-1.48;100.00;100047.83;435759;1254;139925;-63
2023/11/18 23:26:32;;;;;;;37.60;28.00;;;;;;;-1.43;100.00;100052.95;436722;1250;140877;-63
2023/11/18 23:36:38;;;;;;;50.60;34.00;;;;;;;-1.42;100.00;100053.80;435849;1250;140433;-63
2023/11/18 23:46:45;;;;;;;56.80;40.90;;;;;;;-1.42;100.00;100051.73;435742;1253;140523;-63
2023/11/18 23:56:51;;;;;;;71.90;48.60;;;;;;;-1.38;100.00;100041.23;436696;1250;153505;-64
